createdAt,value
2018-11-27T00:00:20.749Z,97.53
2018-11-27T00:01:20.769Z,97.17
2018-11-27T00:02:20.743Z,97.28
2018-11-27T00:03:20.730Z,97.17
2018-11-27T00:04:20.724Z,97.49
2018-11-27T00:05:20.719Z,96.97
2018-11-27T00:06:20.722Z,96.86
2018-11-27T00:07:20.683Z,96.86
2018-11-27T00:08:20.691Z,97.17
2018-11-27T00:09:20.668Z,97.17
2018-11-27T00:10:20.655Z,96.86
2018-11-27T00:11:20.703Z,97.28
2018-11-27T00:12:20.631Z,97.49
2018-11-27T00:13:20.620Z,97.49
2018-11-27T00:14:20.608Z,97.38
2018-11-27T00:15:20.597Z,97.38
2018-11-27T00:16:20.615Z,97.70
2018-11-27T00:17:20.592Z,97.70
2018-11-27T00:18:20.601Z,97.49
2018-11-27T00:19:20.591Z,97.59
2018-11-27T00:20:20.544Z,96.86
2018-11-27T00:21:20.620Z,97.01
2018-11-27T00:22:20.526Z,96.91
2018-11-27T00:23:20.524Z,97.17
2018-11-27T00:24:20.661Z,96.66
2018-11-27T00:25:20.514Z,96.45
2018-11-27T00:26:20.516Z,96.66
2018-11-27T00:27:20.497Z,96.97
2018-11-27T00:28:20.465Z,96.97
2018-11-27T00:29:20.462Z,96.76
2018-11-27T00:30:20.481Z,96.76
2018-11-27T00:31:20.484Z,96.66
2018-11-27T00:32:20.449Z,96.97
2018-11-27T00:33:20.410Z,96.76
2018-11-27T00:34:20.431Z,96.76
2018-11-27T00:35:20.387Z,97.07
2018-11-27T00:36:20.464Z,96.97
2018-11-27T00:37:20.365Z,96.86
2018-11-27T00:38:20.369Z,96.91
2018-11-27T00:39:20.398Z,96.97
2018-11-27T00:40:20.372Z,96.97
2018-11-27T00:41:20.363Z,96.97
2018-11-27T00:42:20.332Z,97.17
2018-11-27T00:43:20.319Z,97.17
2018-11-27T00:44:20.328Z,97.17
2018-11-27T00:45:20.345Z,97.28
2018-11-27T00:46:20.360Z,97.28
2018-11-27T00:47:20.280Z,97.28
2018-11-27T00:48:20.436Z,97.17
2018-11-27T00:49:20.291Z,97.28
2018-11-27T00:50:20.286Z,97.53
2018-11-27T00:51:20.254Z,97.17
2018-11-27T00:52:20.240Z,97.28
2018-11-27T00:53:20.253Z,97.38
2018-11-27T00:54:20.219Z,97.17
2018-11-27T00:55:20.219Z,97.33
2018-11-27T00:56:20.241Z,97.28
2018-11-27T00:57:20.173Z,97.17
2018-11-27T00:58:20.163Z,97.28
2018-11-27T00:59:20.148Z,97.17
2018-11-27T01:00:20.143Z,97.49
2018-11-27T01:01:20.211Z,96.97
2018-11-27T01:02:20.111Z,97.28
2018-11-27T01:03:20.103Z,97.64
2018-11-27T01:04:20.088Z,97.38
2018-11-27T01:05:20.107Z,97.59
2018-11-27T01:06:20.550Z,97.49
2018-11-27T01:07:20.113Z,96.76
2018-11-27T01:08:20.073Z,97.01
2018-11-27T01:09:20.038Z,96.97
2018-11-27T01:10:20.024Z,97.07
2018-11-27T01:11:20.045Z,96.91
2018-11-27T01:12:20.033Z,97.07
2018-11-27T01:13:19.995Z,96.76
2018-11-27T01:14:19.981Z,96.86
2018-11-27T01:15:19.996Z,96.86
2018-11-27T01:16:19.963Z,97.07
2018-11-27T01:17:19.997Z,97.07
2018-11-27T01:18:19.942Z,97.17
2018-11-27T01:19:19.934Z,96.80
2018-11-27T01:20:19.922Z,97.22
2018-11-27T01:21:19.936Z,97.17
2018-11-27T01:22:19.928Z,96.86
2018-11-27T01:23:19.891Z,96.97
2018-11-27T01:24:19.884Z,97.17
2018-11-27T01:25:19.866Z,97.22
2018-11-27T01:26:19.869Z,97.28
2018-11-27T01:27:19.874Z,96.59
2018-11-27T01:28:19.850Z,97.28
2018-11-27T01:29:19.841Z,96.76
2018-11-27T01:30:19.888Z,96.66
2018-11-27T01:31:19.839Z,96.39
2018-11-27T01:32:19.833Z,96.34
2018-11-27T01:33:19.832Z,96.45
2018-11-27T01:34:19.789Z,96.08
2018-11-27T01:35:19.762Z,96.03
2018-11-27T01:36:19.795Z,96.03
2018-11-27T01:37:19.750Z,95.51
2018-11-27T01:38:19.765Z,95.76
2018-11-27T01:39:19.719Z,95.56
2018-11-27T01:40:19.715Z,95.45
2018-11-27T01:41:19.711Z,95.97
2018-11-27T01:42:19.690Z,95.83
2018-11-27T01:43:19.709Z,95.72
2018-11-27T01:44:19.673Z,95.93
2018-11-27T01:45:19.661Z,95.83
2018-11-27T01:46:19.647Z,95.62
2018-11-27T01:47:19.647Z,95.72
2018-11-27T01:48:19.684Z,95.83
2018-11-27T01:49:19.616Z,95.93
2018-11-27T01:50:19.617Z,95.72
2018-11-27T01:51:19.599Z,95.51
2018-11-27T01:52:19.595Z,95.20
2018-11-27T01:53:19.622Z,95.30
2018-11-27T01:54:19.572Z,95.30
2018-11-27T01:55:19.562Z,95.30
2018-11-27T01:56:19.566Z,95.40
2018-11-27T01:57:19.587Z,95.40
2018-11-27T01:58:19.578Z,95.20
2018-11-27T01:59:19.518Z,95.40
2018-11-27T02:00:19.517Z,95.20
2018-11-27T02:01:19.589Z,95.20
2018-11-27T02:02:19.484Z,95.25
2018-11-27T02:03:19.554Z,95.40
2018-11-27T02:04:19.460Z,95.83
2018-11-27T02:05:19.459Z,95.72
2018-11-27T02:06:19.452Z,95.72
2018-11-27T02:07:19.431Z,95.40
2018-11-27T02:08:19.446Z,95.97
2018-11-27T02:09:19.448Z,95.40
2018-11-27T02:10:19.402Z,95.51
2018-11-27T02:11:19.392Z,95.51
2018-11-27T02:12:19.391Z,96.24
2018-11-27T02:13:19.415Z,96.14
2018-11-27T02:14:19.368Z,95.40
2018-11-27T02:15:19.356Z,95.56
2018-11-27T02:16:19.347Z,95.45
2018-11-27T02:17:19.411Z,95.87
2018-11-27T02:18:19.419Z,95.87
2018-11-27T02:19:19.315Z,95.25
2018-11-27T02:20:19.355Z,95.56
2018-11-27T02:21:19.325Z,94.78
2018-11-27T02:22:19.298Z,94.82
2018-11-27T02:23:19.322Z,95.25
2018-11-27T02:24:19.262Z,95.45
2018-11-27T02:25:19.261Z,95.25
2018-11-27T02:26:19.279Z,95.03
2018-11-27T02:27:19.243Z,95.40
2018-11-27T02:28:19.244Z,95.14
2018-11-27T02:29:19.409Z,95.35
2018-11-27T02:30:19.212Z,94.99
2018-11-27T02:31:19.200Z,95.35
2018-11-27T02:32:19.275Z,95.30
2018-11-27T02:33:19.248Z,95.30
2018-11-27T02:34:19.157Z,95.30
2018-11-27T02:35:19.145Z,95.09
2018-11-27T02:36:19.203Z,95.45
2018-11-27T02:37:19.133Z,95.66
2018-11-27T02:38:19.195Z,95.83
2018-11-27T02:39:19.132Z,96.03
2018-11-27T02:40:19.105Z,96.18
2018-11-27T02:41:19.103Z,95.66
2018-11-27T02:42:19.081Z,95.30
2018-11-27T02:43:19.120Z,95.45
2018-11-27T02:44:19.049Z,95.35
2018-11-27T02:45:19.098Z,95.35
2018-11-27T02:46:19.049Z,95.20
2018-11-27T02:47:19.061Z,95.14
2018-11-27T02:48:19.069Z,95.35
2018-11-27T02:49:19.021Z,95.35
2018-11-27T02:50:18.998Z,95.14
2018-11-27T02:51:18.981Z,95.45
2018-11-27T02:52:18.970Z,95.03
2018-11-27T02:53:18.994Z,95.40
2018-11-27T02:54:18.964Z,95.20
2018-11-27T02:55:18.980Z,95.66
2018-11-27T02:56:19.596Z,96.18
2018-11-27T02:57:19.456Z,96.18
2018-11-27T02:58:18.948Z,95.72
2018-11-27T02:59:18.896Z,96.08
2018-11-27T03:00:18.937Z,95.87
2018-11-27T03:01:18.872Z,95.87
2018-11-27T03:02:18.858Z,95.35
2018-11-27T03:03:18.884Z,95.35
2018-11-27T03:04:18.887Z,95.03
2018-11-27T03:05:18.831Z,95.25
2018-11-27T03:06:18.831Z,96.14
2018-11-27T03:07:18.831Z,95.87
2018-11-27T03:08:18.877Z,95.72
2018-11-27T03:09:18.809Z,95.87
2018-11-27T03:10:18.785Z,95.97
2018-11-27T03:11:18.788Z,95.76
2018-11-27T03:12:18.779Z,95.97
2018-11-27T03:13:18.809Z,95.87
2018-11-27T03:14:18.786Z,96.18
2018-11-27T03:15:18.854Z,95.83
2018-11-27T03:16:18.725Z,95.97
2018-11-27T03:17:18.720Z,95.97
2018-11-27T03:18:18.743Z,95.97
2018-11-27T03:19:18.815Z,95.97
2018-11-27T03:20:18.692Z,95.87
2018-11-27T03:21:18.669Z,95.93
2018-11-27T03:22:18.685Z,96.18
2018-11-27T03:23:18.668Z,95.97
2018-11-27T03:24:18.718Z,96.08
2018-11-27T03:25:18.692Z,95.97
2018-11-27T03:26:18.611Z,96.08
2018-11-27T03:27:18.639Z,95.83
2018-11-27T03:28:18.702Z,96.08
2018-11-27T03:29:18.602Z,95.97
2018-11-27T03:30:18.600Z,96.08
2018-11-27T03:31:18.610Z,95.76
2018-11-27T03:32:18.559Z,95.87
2018-11-27T03:33:18.589Z,96.03
2018-11-27T03:34:18.599Z,96.14
2018-11-27T03:35:18.812Z,96.18
2018-11-27T03:36:18.579Z,96.03
2018-11-27T03:37:18.533Z,96.08
2018-11-27T03:38:18.554Z,95.87
2018-11-27T03:39:18.551Z,95.87
2018-11-27T03:40:18.494Z,95.66
2018-11-27T03:41:18.460Z,95.76
2018-11-27T03:42:18.507Z,95.83
2018-11-27T03:43:18.465Z,95.83
2018-11-27T03:44:18.473Z,95.97
2018-11-27T03:45:18.429Z,95.97
2018-11-27T03:46:18.420Z,96.28
2018-11-27T03:47:18.398Z,95.97
2018-11-27T03:48:18.593Z,95.66
2018-11-27T03:49:18.409Z,95.25
2018-11-27T03:50:18.448Z,95.25
2018-11-27T03:51:18.356Z,95.56
2018-11-27T03:52:18.367Z,95.25
2018-11-27T03:53:18.383Z,95.56
2018-11-27T03:54:18.360Z,96.08
2018-11-27T03:55:18.347Z,95.40
2018-11-27T03:56:18.308Z,95.51
2018-11-27T03:57:18.292Z,95.93
2018-11-27T03:58:18.347Z,95.97
2018-11-27T03:59:18.437Z,95.76
2018-11-27T04:00:18.336Z,95.45
2018-11-27T04:01:18.267Z,95.56
2018-11-27T04:02:18.245Z,95.66
2018-11-27T04:03:18.278Z,95.45
2018-11-27T04:04:18.255Z,95.56
2018-11-27T04:05:18.217Z,95.56
2018-11-27T04:06:18.205Z,95.45
2018-11-27T04:07:18.222Z,95.66
2018-11-27T04:08:18.208Z,95.66
2018-11-27T04:09:18.194Z,95.51
2018-11-27T04:10:18.163Z,95.76
2018-11-27T04:11:18.146Z,95.56
2018-11-27T04:12:18.149Z,95.76
2018-11-27T04:13:19.293Z,95.56
2018-11-27T04:14:18.162Z,95.76
2018-11-27T04:15:18.111Z,95.66
2018-11-27T04:16:18.213Z,95.56
2018-11-27T04:17:18.117Z,95.87
2018-11-27T04:18:18.093Z,96.18
2018-11-27T04:19:18.106Z,96.08
2018-11-27T04:20:18.138Z,96.18
2018-11-27T04:21:18.050Z,96.28
2018-11-27T04:22:18.046Z,96.03
2018-11-27T04:23:18.028Z,96.39
2018-11-27T04:24:18.135Z,97.01
2018-11-27T04:25:18.007Z,96.70
2018-11-27T04:26:18.005Z,96.80
2018-11-27T04:27:17.993Z,96.80
2018-11-27T04:28:17.981Z,96.49
2018-11-27T04:29:17.994Z,96.70
2018-11-27T04:30:17.977Z,96.80
2018-11-27T04:31:17.969Z,96.70
2018-11-27T04:32:18.004Z,96.39
2018-11-27T04:33:17.941Z,97.01
2018-11-27T04:34:17.970Z,97.33
2018-11-27T04:35:17.936Z,97.33
2018-11-27T04:36:17.888Z,96.70
2018-11-27T04:37:17.880Z,96.49
2018-11-27T04:38:17.915Z,97.01
2018-11-27T04:39:18.047Z,97.22
2018-11-27T04:40:17.909Z,96.08
2018-11-27T04:41:17.874Z,96.28
2018-11-27T04:42:18.048Z,96.08
2018-11-27T04:43:17.818Z,96.08
2018-11-27T04:44:17.887Z,96.18
2018-11-27T04:45:17.796Z,96.18
2018-11-27T04:46:17.813Z,96.28
2018-11-27T04:47:17.861Z,96.18
2018-11-27T04:48:17.761Z,95.81
2018-11-27T04:49:17.780Z,95.60
2018-11-27T04:50:17.741Z,95.56
2018-11-27T04:51:17.742Z,96.28
2018-11-27T04:52:17.763Z,96.12
2018-11-27T04:53:17.714Z,96.18
2018-11-27T04:54:17.725Z,96.33
2018-11-27T04:55:17.688Z,96.12
2018-11-27T04:56:17.677Z,96.22
2018-11-27T04:57:17.698Z,96.12
2018-11-27T04:58:17.658Z,96.18
2018-11-27T04:59:17.696Z,96.80
2018-11-27T05:00:17.646Z,96.43
2018-11-27T05:01:17.643Z,96.95
2018-11-27T05:02:17.648Z,96.85
2018-11-27T05:03:17.609Z,96.75
2018-11-27T05:04:17.705Z,96.75
2018-11-27T05:05:17.586Z,97.12
2018-11-27T05:06:17.580Z,97.16
2018-11-27T05:07:17.570Z,96.80
2018-11-27T05:08:17.591Z,96.33
2018-11-27T05:09:17.594Z,95.56
2018-11-27T05:10:17.625Z,95.70
2018-11-27T05:11:17.531Z,95.60
2018-11-27T05:12:17.523Z,96.12
2018-11-27T05:13:17.513Z,96.22
2018-11-27T05:14:17.629Z,96.22
2018-11-27T05:15:17.493Z,96.33
2018-11-27T05:16:17.481Z,96.22
2018-11-27T05:17:17.522Z,96.18
2018-11-27T05:18:17.459Z,96.22
2018-11-27T05:19:17.497Z,96.22
2018-11-27T05:20:17.436Z,95.56
2018-11-27T05:21:17.749Z,95.56
2018-11-27T05:22:17.420Z,95.60
2018-11-27T05:23:17.411Z,95.60
2018-11-27T05:24:17.444Z,95.60
2018-11-27T05:25:17.395Z,95.60
2018-11-27T05:26:17.374Z,95.50
2018-11-27T05:27:17.415Z,96.22
2018-11-27T05:28:17.513Z,95.60
2018-11-27T05:29:17.376Z,95.60
2018-11-27T05:30:17.350Z,95.81
2018-11-27T05:31:17.316Z,95.81
2018-11-27T05:32:17.317Z,95.39
2018-11-27T05:33:17.515Z,95.70
2018-11-27T05:34:18.516Z,95.81
2018-11-27T05:35:17.312Z,95.81
2018-11-27T05:36:17.335Z,95.50
2018-11-27T05:37:17.422Z,96.22
2018-11-27T05:38:17.242Z,96.22
2018-11-27T05:39:17.241Z,96.33
2018-11-27T05:40:17.548Z,96.12
2018-11-27T05:41:17.229Z,95.60
2018-11-27T05:42:17.202Z,96.85
2018-11-27T05:43:17.269Z,96.85
2018-11-27T05:44:17.181Z,97.01
2018-11-27T05:45:17.199Z,95.91
2018-11-27T05:46:17.196Z,96.22
2018-11-27T05:47:17.173Z,95.45
2018-11-27T05:48:17.638Z,95.39
2018-11-27T05:49:17.135Z,95.81
2018-11-27T05:50:17.159Z,95.60
2018-11-27T05:51:17.190Z,95.70
2018-11-27T05:52:17.112Z,95.70
2018-11-27T05:53:17.090Z,95.60
2018-11-27T05:54:26.612Z,95.60
2018-11-27T05:55:17.109Z,95.50
2018-11-27T05:56:17.156Z,95.91
2018-11-27T05:57:17.054Z,95.54
2018-11-27T05:58:17.106Z,95.75
2018-11-27T05:59:17.031Z,95.70
2018-11-27T06:00:17.058Z,95.60
2018-11-27T06:01:17.132Z,96.01
2018-11-27T06:02:17.001Z,96.01
2018-11-27T06:03:17.000Z,96.33
2018-11-27T06:04:17.047Z,97.27
2018-11-27T06:05:16.998Z,96.95
2018-11-27T06:06:17.027Z,96.58
2018-11-27T06:07:16.969Z,96.75
2018-11-27T06:08:16.986Z,96.95
2018-11-27T06:09:16.926Z,96.85
2018-11-27T06:10:16.972Z,96.69
2018-11-27T06:11:16.900Z,96.53
2018-11-27T06:12:16.898Z,97.20
2018-11-27T06:13:17.129Z,97.16
2018-11-27T06:14:16.867Z,97.31
2018-11-27T06:15:16.912Z,97.31
2018-11-27T06:16:16.880Z,97.41
2018-11-27T06:17:16.851Z,97.10
2018-11-27T06:18:16.850Z,97.00
2018-11-27T06:19:16.847Z,96.95
2018-11-27T06:20:16.836Z,96.58
2018-11-27T06:21:16.826Z,96.48
2018-11-27T06:22:16.787Z,96.89
2018-11-27T06:23:16.891Z,97.10
2018-11-27T06:24:16.819Z,97.31
2018-11-27T06:25:16.787Z,97.10
2018-11-27T06:26:16.762Z,96.89
2018-11-27T06:27:16.762Z,97.41
2018-11-27T06:28:16.724Z,96.89
2018-11-27T06:29:16.711Z,97.20
2018-11-27T06:30:16.777Z,96.79
2018-11-27T06:31:16.698Z,97.41
2018-11-27T06:32:21.301Z,97.31
2018-11-27T06:33:16.670Z,97.31
2018-11-27T06:34:16.666Z,96.89
2018-11-27T06:35:16.681Z,96.89
2018-11-27T06:36:16.696Z,96.79
2018-11-27T06:37:16.640Z,97.31
2018-11-27T06:38:16.630Z,97.04
2018-11-27T06:39:16.610Z,97.20
2018-11-27T06:40:16.770Z,97.00
2018-11-27T06:41:16.590Z,97.31
2018-11-27T06:42:16.614Z,96.58
2018-11-27T06:43:16.570Z,97.31
2018-11-27T06:44:16.557Z,97.20
2018-11-27T06:45:16.574Z,97.20
2018-11-27T06:46:16.540Z,97.00
2018-11-27T06:47:16.524Z,97.00
2018-11-27T06:48:16.554Z,97.20
2018-11-27T06:49:16.504Z,97.20
2018-11-27T06:50:16.605Z,97.04
2018-11-27T06:51:16.496Z,97.00
2018-11-27T06:52:16.478Z,97.35
2018-11-27T06:53:16.466Z,97.14
2018-11-27T06:54:16.577Z,97.31
2018-11-27T06:55:16.491Z,97.14
2018-11-27T06:56:16.439Z,97.31
2018-11-27T06:57:16.462Z,97.04
2018-11-27T06:58:16.414Z,97.10
2018-11-27T06:59:16.401Z,97.35
2018-11-27T07:00:16.428Z,97.31
2018-11-27T07:01:16.405Z,97.14
2018-11-27T07:02:16.368Z,97.14
2018-11-27T07:03:16.361Z,97.41
2018-11-27T07:04:16.348Z,97.00
2018-11-27T07:05:16.381Z,96.94
2018-11-27T07:06:16.328Z,97.14
2018-11-27T07:07:16.361Z,97.14
2018-11-27T07:08:16.315Z,97.25
2018-11-27T07:09:16.297Z,97.04
2018-11-27T07:10:16.320Z,96.83
2018-11-27T07:11:16.279Z,97.25
2018-11-27T07:12:16.265Z,97.04
2018-11-27T07:13:16.277Z,97.04
2018-11-27T07:14:16.287Z,97.04
2018-11-27T07:15:16.297Z,97.04
2018-11-27T07:16:16.231Z,97.04
2018-11-27T07:17:16.227Z,97.35
2018-11-27T07:18:16.204Z,97.04
2018-11-27T07:19:16.191Z,97.04
2018-11-27T07:20:16.208Z,97.04
2018-11-27T07:21:16.209Z,97.04
2018-11-27T07:22:16.175Z,96.94
2018-11-27T07:23:16.151Z,97.04
2018-11-27T07:24:16.444Z,97.25
2018-11-27T07:25:16.622Z,97.04
2018-11-27T07:26:16.232Z,97.25
2018-11-27T07:27:16.115Z,96.52
2018-11-27T07:28:16.119Z,96.79
2018-11-27T07:29:17.143Z,97.25
2018-11-27T07:30:16.112Z,97.04
2018-11-27T07:31:16.273Z,97.35
2018-11-27T07:32:16.062Z,97.04
2018-11-27T07:33:16.058Z,97.35
2018-11-27T07:34:16.083Z,97.35
2018-11-27T07:35:16.058Z,97.10
2018-11-27T07:36:16.043Z,96.94
2018-11-27T07:37:16.035Z,96.94
2018-11-27T07:38:15.995Z,96.83
2018-11-27T07:39:15.986Z,97.04
2018-11-27T07:40:15.991Z,97.25
2018-11-27T07:41:15.994Z,97.25
2018-11-27T07:42:15.952Z,96.94
2018-11-27T07:43:15.945Z,97.04
2018-11-27T07:44:15.941Z,96.69
2018-11-27T07:45:15.955Z,96.94
2018-11-27T07:46:15.938Z,97.14
2018-11-27T07:47:15.904Z,97.14
2018-11-27T07:48:15.895Z,97.14
2018-11-27T07:49:15.880Z,96.83
2018-11-27T07:50:15.872Z,96.94
2018-11-27T07:51:15.912Z,96.73
2018-11-27T07:52:15.991Z,96.94
2018-11-27T07:53:16.066Z,96.94
2018-11-27T07:54:15.931Z,96.83
2018-11-27T07:55:15.898Z,97.14
2018-11-27T07:56:15.852Z,96.62
2018-11-27T07:57:16.096Z,96.79
2018-11-27T07:58:15.810Z,97.10
2018-11-27T07:59:15.923Z,96.79
2018-11-27T08:00:16.003Z,97.04
2018-11-27T08:01:15.794Z,97.35
2018-11-27T08:02:15.970Z,95.95
2018-11-27T08:03:15.736Z,96.26
2018-11-27T08:04:15.768Z,96.21
2018-11-27T08:05:15.756Z,96.37
2018-11-27T08:06:15.859Z,96.26
2018-11-27T08:07:15.811Z,96.26
2018-11-27T08:08:15.691Z,95.64
2018-11-27T08:09:15.839Z,95.64
2018-11-27T08:10:16.101Z,95.85
2018-11-27T08:11:15.653Z,96.06
2018-11-27T08:12:15.760Z,96.16
2018-11-27T08:13:15.664Z,96.16
2018-11-27T08:14:16.427Z,96.16
2018-11-27T08:15:15.801Z,96.01
2018-11-27T08:16:15.601Z,95.18
2018-11-27T08:17:16.225Z,95.43
2018-11-27T08:18:15.630Z,95.02
2018-11-27T08:19:15.817Z,94.92
2018-11-27T08:20:15.828Z,95.18
2018-11-27T08:21:15.557Z,94.87
2018-11-27T08:22:15.538Z,94.87
2018-11-27T08:23:15.593Z,94.24
2018-11-27T08:24:15.546Z,94.24
2018-11-27T08:25:15.506Z,94.24
2018-11-27T08:26:15.536Z,94.76
2018-11-27T08:27:15.482Z,94.24
2018-11-27T08:28:15.478Z,94.35
2018-11-27T08:29:15.464Z,94.14
2018-11-27T08:30:15.482Z,94.76
2018-11-27T08:31:15.468Z,94.20
2018-11-27T08:32:15.435Z,94.31
2018-11-27T08:33:15.957Z,94.31
2018-11-27T08:34:15.502Z,93.79
2018-11-27T08:35:15.432Z,93.79
2018-11-27T08:36:15.930Z,93.58
2018-11-27T08:37:15.961Z,93.05
2018-11-27T08:38:15.397Z,93.27
2018-11-27T08:39:15.587Z,93.16
2018-11-27T08:40:15.619Z,93.54
2018-11-27T08:41:15.340Z,93.16
2018-11-27T08:42:15.771Z,93.27
2018-11-27T08:43:15.765Z,92.64
2018-11-27T08:44:15.420Z,92.54
2018-11-27T08:45:15.324Z,92.54
2018-11-27T08:46:15.319Z,91.71
2018-11-27T08:47:15.283Z,91.91
2018-11-27T08:48:15.285Z,92.33
2018-11-27T08:49:15.283Z,92.91
2018-11-27T08:50:15.275Z,92.39
2018-11-27T08:51:15.236Z,92.43
2018-11-27T08:52:15.226Z,92.08
2018-11-27T08:53:15.219Z,92.29
2018-11-27T08:54:15.218Z,92.39
2018-11-27T08:55:15.221Z,91.56
2018-11-27T08:56:15.186Z,91.97
2018-11-27T08:57:15.177Z,91.87
2018-11-27T08:58:15.163Z,91.56
2018-11-27T08:59:15.174Z,91.04
2018-11-27T09:00:15.262Z,91.56
2018-11-27T09:01:15.591Z,91.62
2018-11-27T09:02:15.122Z,91.14
2018-11-27T09:03:15.599Z,91.77
2018-11-27T09:04:15.117Z,91.62
2018-11-27T09:05:15.122Z,91.14
2018-11-27T09:06:15.096Z,90.89
2018-11-27T09:07:15.083Z,91.04
2018-11-27T09:08:15.062Z,91.04
2018-11-27T09:09:15.086Z,91.46
2018-11-27T09:10:15.079Z,90.93
2018-11-27T09:11:15.028Z,90.47
2018-11-27T09:12:15.022Z,90.83
2018-11-27T09:13:15.321Z,90.79
2018-11-27T09:14:15.024Z,91.00
2018-11-27T09:15:15.059Z,90.89
2018-11-27T09:16:14.977Z,90.69
2018-11-27T09:17:14.964Z,90.89
2018-11-27T09:18:14.959Z,90.37
2018-11-27T09:19:14.944Z,90.69
2018-11-27T09:20:14.985Z,90.83
2018-11-27T09:21:14.928Z,90.16
2018-11-27T09:22:14.912Z,90.52
2018-11-27T09:23:14.902Z,90.06
2018-11-27T09:24:14.893Z,90.58
2018-11-27T09:25:14.910Z,90.89
2018-11-27T09:26:14.901Z,90.79
2018-11-27T09:27:14.881Z,90.16
2018-11-27T09:28:14.976Z,90.47
2018-11-27T09:29:14.898Z,89.54
2018-11-27T09:30:14.884Z,88.29
2018-11-27T09:31:14.841Z,88.92
2018-11-27T09:32:14.817Z,88.71
2018-11-27T09:33:14.845Z,88.60
2018-11-27T09:34:14.794Z,88.50
2018-11-27T09:35:14.834Z,88.71
2018-11-27T09:36:14.799Z,88.92
2018-11-27T09:37:14.769Z,87.66
2018-11-27T09:38:14.749Z,88.09
2018-11-27T09:39:14.735Z,88.81
2018-11-27T09:40:14.741Z,87.77
2018-11-27T09:41:14.748Z,88.81
2018-11-27T09:42:14.726Z,88.50
2018-11-27T09:43:14.692Z,88.40
2018-11-27T09:44:14.692Z,88.29
2018-11-27T09:45:14.683Z,88.56
2018-11-27T09:46:14.990Z,88.60
2018-11-27T09:47:14.652Z,88.46
2018-11-27T09:48:16.158Z,88.46
2018-11-27T09:49:14.707Z,88.35
2018-11-27T09:50:15.066Z,88.77
2018-11-27T09:51:14.637Z,87.63
2018-11-27T09:52:15.003Z,87.56
2018-11-27T09:53:15.111Z,87.21
2018-11-27T09:54:14.805Z,87.25
2018-11-27T09:55:15.509Z,87.42
2018-11-27T09:56:15.739Z,87.63
2018-11-27T09:57:14.546Z,88.29
2018-11-27T09:58:14.561Z,88.87
2018-11-27T09:59:14.672Z,88.46
2018-11-27T10:00:14.628Z,88.67
2018-11-27T10:01:14.850Z,88.15
2018-11-27T10:02:14.825Z,87.63
2018-11-27T10:03:14.725Z,87.73
2018-11-27T10:04:14.998Z,88.35
2018-11-27T10:05:14.683Z,88.35
2018-11-27T10:06:14.493Z,87.98
2018-11-27T10:07:14.636Z,87.25
2018-11-27T10:08:14.431Z,88.25
2018-11-27T10:09:14.442Z,87.32
2018-11-27T10:10:14.539Z,86.52
2018-11-27T10:11:15.657Z,86.80
2018-11-27T10:12:14.952Z,86.80
2018-11-27T10:13:14.399Z,86.59
2018-11-27T10:14:14.404Z,86.59
2018-11-27T10:15:14.711Z,86.17
2018-11-27T10:16:14.422Z,87.01
2018-11-27T10:17:14.931Z,86.59
2018-11-27T10:18:14.640Z,86.59
2018-11-27T10:19:14.323Z,85.24
2018-11-27T10:20:14.437Z,85.13
2018-11-27T10:21:14.617Z,86.80
2018-11-27T10:22:14.287Z,87.11
2018-11-27T10:23:14.375Z,86.59
2018-11-27T10:24:14.359Z,87.11
2018-11-27T10:25:14.484Z,86.90
2018-11-27T10:26:14.381Z,86.86
2018-11-27T10:27:14.343Z,85.82
2018-11-27T10:28:14.583Z,86.34
2018-11-27T10:29:14.384Z,86.03
2018-11-27T10:30:14.259Z,85.86
2018-11-27T10:31:14.559Z,85.41
2018-11-27T10:32:14.260Z,85.41
2018-11-27T10:33:14.265Z,85.72
2018-11-27T10:34:14.754Z,85.20
2018-11-27T10:35:14.226Z,84.99
2018-11-27T10:36:14.389Z,85.41
2018-11-27T10:37:14.365Z,85.82
2018-11-27T10:38:14.361Z,85.26
2018-11-27T10:39:14.147Z,85.41
2018-11-27T10:40:14.095Z,85.72
2018-11-27T10:41:14.353Z,85.57
2018-11-27T10:42:14.135Z,85.72
2018-11-27T10:43:19.448Z,85.93
2018-11-27T10:44:15.173Z,84.95
2018-11-27T10:45:14.108Z,85.26
2018-11-27T10:46:14.070Z,85.99
2018-11-27T10:47:14.034Z,85.05
2018-11-27T10:48:14.109Z,84.74
2018-11-27T10:49:14.037Z,84.43
2018-11-27T10:50:13.987Z,84.64
2018-11-27T10:51:14.166Z,84.78
2018-11-27T10:52:13.973Z,84.43
2018-11-27T10:53:14.081Z,84.37
2018-11-27T10:54:14.207Z,84.27
2018-11-27T10:55:14.641Z,83.91
2018-11-27T10:56:14.043Z,84.33
2018-11-27T10:57:14.208Z,83.60
2018-11-27T10:58:14.178Z,83.64
2018-11-27T10:59:14.065Z,84.01
2018-11-27T11:00:14.083Z,84.53
2018-11-27T11:01:14.196Z,84.12
2018-11-27T11:02:13.868Z,84.74
2018-11-27T11:03:14.777Z,84.53
2018-11-27T11:04:14.431Z,84.33
2018-11-27T11:05:13.845Z,84.01
2018-11-27T11:06:14.862Z,83.50
2018-11-27T11:07:14.164Z,83.91
2018-11-27T11:08:14.202Z,83.46
2018-11-27T11:09:15.441Z,83.67
2018-11-27T11:10:13.989Z,83.60
2018-11-27T11:11:14.305Z,83.56
2018-11-27T11:12:13.809Z,83.36
2018-11-27T11:13:13.875Z,83.36
2018-11-27T11:14:14.147Z,83.46
2018-11-27T11:15:14.217Z,82.21
2018-11-27T11:16:13.741Z,81.90
2018-11-27T11:17:13.704Z,82.21
2018-11-27T11:18:13.693Z,82.53
2018-11-27T11:19:18.270Z,82.11
2018-11-27T11:20:14.285Z,82.32
2018-11-27T11:21:13.694Z,81.90
2018-11-27T11:22:13.723Z,81.59
2018-11-27T11:23:13.816Z,81.28
2018-11-27T11:24:13.649Z,81.38
2018-11-27T11:25:14.616Z,81.18
2018-11-27T11:26:14.544Z,81.14
2018-11-27T11:27:13.791Z,81.24
2018-11-27T11:28:13.797Z,81.24
2018-11-27T11:29:14.119Z,79.79
2018-11-27T11:30:13.621Z,79.69
2018-11-27T11:31:14.017Z,79.51
2018-11-27T11:32:13.549Z,79.83
2018-11-27T11:33:13.998Z,79.72
2018-11-27T11:34:13.527Z,79.69
2018-11-27T11:35:13.607Z,80.10
2018-11-27T11:36:13.577Z,80.10
2018-11-27T11:37:13.496Z,80.35
2018-11-27T11:38:14.295Z,79.58
2018-11-27T11:39:14.048Z,80.31
2018-11-27T11:40:13.666Z,81.24
2018-11-27T11:41:13.899Z,80.10
2018-11-27T11:42:13.474Z,80.00
2018-11-27T11:43:13.813Z,79.79
2018-11-27T11:44:13.661Z,79.90
2018-11-27T11:45:13.442Z,80.10
2018-11-27T11:46:13.430Z,80.14
2018-11-27T11:47:13.405Z,80.21
2018-11-27T11:48:13.399Z,80.00
2018-11-27T11:49:13.369Z,79.79
2018-11-27T11:50:13.354Z,79.61
2018-11-27T11:51:13.349Z,79.06
2018-11-27T11:52:13.368Z,78.06
2018-11-27T11:53:13.326Z,78.78
2018-11-27T11:54:13.321Z,79.20
2018-11-27T11:55:13.302Z,78.96
2018-11-27T11:56:13.338Z,78.78
2018-11-27T11:57:13.312Z,78.58
2018-11-27T11:58:13.281Z,78.58
2018-11-27T11:59:13.307Z,78.78
2018-11-27T12:00:13.253Z,79.30
2018-11-27T12:01:13.240Z,78.75
2018-11-27T12:02:13.253Z,78.89
2018-11-27T12:03:13.230Z,79.20
2018-11-27T12:04:13.206Z,79.20
2018-11-27T12:05:13.211Z,78.58
2018-11-27T12:06:13.229Z,79.41
2018-11-27T12:07:13.203Z,79.41
2018-11-27T12:08:13.167Z,78.16
2018-11-27T12:09:13.213Z,77.95
2018-11-27T12:10:13.145Z,78.58
2018-11-27T12:11:14.298Z,78.68
2018-11-27T12:12:13.155Z,79.20
2018-11-27T12:13:13.112Z,78.78
2018-11-27T12:14:13.134Z,79.10
2018-11-27T12:15:13.098Z,78.55
2018-11-27T12:16:13.094Z,79.27
2018-11-27T12:17:13.233Z,78.34
2018-11-27T12:18:13.096Z,78.34
2018-11-27T12:19:13.053Z,78.75
2018-11-27T12:20:13.068Z,78.03
2018-11-27T12:21:13.031Z,77.92
2018-11-27T12:22:13.044Z,77.33
2018-11-27T12:23:13.006Z,78.86
2018-11-27T12:24:12.994Z,78.55
2018-11-27T12:25:12.988Z,78.65
2018-11-27T12:26:13.059Z,78.61
2018-11-27T12:27:12.994Z,77.89
2018-11-27T12:28:14.977Z,77.26
2018-11-27T12:29:12.943Z,77.37
2018-11-27T12:30:12.954Z,76.43
2018-11-27T12:31:12.924Z,75.85
2018-11-27T12:32:12.968Z,76.23
2018-11-27T12:33:12.929Z,76.12
2018-11-27T12:34:12.905Z,76.23
2018-11-27T12:35:12.895Z,76.33
2018-11-27T12:36:12.867Z,76.19
2018-11-27T12:37:12.912Z,76.29
2018-11-27T12:38:12.891Z,75.36
2018-11-27T12:39:12.837Z,74.91
2018-11-27T12:40:12.829Z,74.53
2018-11-27T12:41:12.816Z,74.29
2018-11-27T12:42:12.832Z,74.53
2018-11-27T12:43:12.797Z,74.22
2018-11-27T12:44:12.829Z,74.74
2018-11-27T12:45:12.777Z,74.46
2018-11-27T12:46:12.773Z,74.88
2018-11-27T12:47:12.789Z,75.09
2018-11-27T12:48:12.766Z,75.40
2018-11-27T12:49:12.739Z,75.40
2018-11-27T12:50:12.743Z,75.50
2018-11-27T12:51:13.395Z,76.43
2018-11-27T12:52:12.710Z,76.12